createdAt,value
2022-11-17T00:00:50.023Z,99.90
2022-11-17T00:03:20.338Z,99.90
2022-11-17T00:05:49.815Z,99.90
2022-11-17T00:08:20.945Z,99.90
2022-11-17T00:10:50.263Z,99.90
2022-11-17T00:13:37.318Z,99.90
2022-11-17T00:16:07.369Z,99.90
2022-11-17T00:18:50.976Z,99.90
2022-11-17T00:21:21.800Z,99.90
2022-11-17T00:23:53.052Z,99.90
2022-11-17T00:26:23.761Z,99.90
2022-11-17T00:28:54.420Z,99.90
2022-11-17T00:31:42.577Z,99.90
2022-11-17T00:34:16.056Z,99.90
2022-11-17T00:36:47.393Z,99.90
2022-11-17T00:39:20.486Z,99.90
2022-11-17T00:41:49.896Z,99.90
2022-11-17T00:44:20.070Z,99.90
2022-11-17T00:46:49.729Z,99.90
2022-11-17T00:49:21.852Z,99.90
2022-11-17T00:51:51.311Z,99.90
2022-11-17T00:54:23.283Z,99.90
2022-11-17T00:56:52.703Z,99.90
2022-11-17T00:59:23.126Z,99.90
2022-11-17T01:01:52.461Z,99.90
2022-11-17T01:04:22.585Z,99.90
2022-11-17T01:06:52.109Z,99.90
2022-11-17T01:09:25.116Z,99.90
2022-11-17T01:11:55.070Z,99.90
2022-11-17T01:14:26.831Z,99.90
2022-11-17T01:16:56.483Z,99.90
2022-11-17T01:19:26.932Z,99.90
2022-11-17T01:21:56.590Z,99.90
2022-11-17T01:24:28.285Z,99.90
2022-11-17T01:26:57.757Z,99.90
2022-11-17T01:29:27.928Z,99.90
2022-11-17T01:31:57.492Z,99.90
2022-11-17T01:34:27.472Z,99.90
2022-11-17T01:37:14.015Z,99.90
2022-11-17T01:39:45.338Z,99.90
2022-11-17T01:42:15.404Z,99.90
2022-11-17T01:45:00.170Z,99.90
2022-11-17T01:47:48.815Z,99.90
2022-11-17T01:50:31.257Z,99.90
2022-11-17T01:53:02.914Z,99.90
2022-11-17T01:55:39.510Z,99.90
2022-11-17T01:58:13.592Z,99.90
2022-11-17T02:00:43.833Z,99.90
2022-11-17T02:03:13.816Z,99.90
2022-11-17T02:05:51.516Z,99.90
2022-11-17T02:08:24.186Z,99.90
2022-11-17T02:10:56.601Z,99.90
2022-11-17T02:13:26.279Z,99.90
2022-11-17T02:15:55.941Z,99.90
2022-11-17T02:18:25.206Z,99.90
2022-11-17T02:21:18.113Z,99.90
2022-11-17T02:24:34.088Z,99.90
2022-11-17T02:27:38.801Z,99.90
2022-11-17T02:30:12.569Z,99.90
2022-11-17T02:32:56.573Z,99.90
2022-11-17T02:35:31.782Z,99.90
2022-11-17T02:38:11.063Z,99.90
2022-11-17T02:40:46.534Z,99.90
2022-11-17T02:43:39.127Z,99.90
2022-11-17T02:46:11.719Z,99.90
2022-11-17T02:48:46.005Z,99.90
2022-11-17T02:51:20.459Z,99.90
2022-11-17T02:53:53.785Z,99.90
2022-11-17T02:56:23.295Z,99.90
2022-11-17T02:58:59.552Z,99.90
2022-11-17T03:02:01.047Z,99.90
2022-11-17T03:04:38.522Z,99.90
2022-11-17T03:07:24.623Z,99.90
2022-11-17T03:10:04.865Z,99.90
2022-11-17T03:12:41.133Z,99.90
2022-11-17T03:15:20.893Z,99.90
2022-11-17T03:17:58.137Z,99.90
2022-11-17T03:20:32.869Z,99.90
2022-11-17T03:23:07.190Z,99.90
2022-11-17T03:25:39.639Z,99.90
2022-11-17T03:28:11.455Z,99.90
2022-11-17T03:30:47.324Z,99.90
2022-11-17T03:33:20.116Z,99.90
2022-11-17T03:35:56.553Z,99.90
2022-11-17T03:38:29.613Z,99.90
2022-11-17T03:41:04.595Z,99.90
2022-11-17T03:43:34.518Z,99.90
2022-11-17T03:46:10.991Z,99.90
2022-11-17T03:48:45.134Z,99.90
2022-11-17T03:51:19.723Z,99.90
2022-11-17T03:53:49.521Z,99.90
2022-11-17T03:56:32.149Z,99.90
2022-11-17T03:59:04.572Z,99.90
2022-11-17T04:01:36.853Z,99.90
2022-11-17T04:04:06.532Z,99.90
2022-11-17T04:06:36.412Z,99.90
2022-11-17T04:09:05.745Z,99.90
2022-11-17T04:11:53.548Z,99.90
2022-11-17T04:14:39.929Z,99.90
2022-11-17T04:17:11.499Z,99.90
2022-11-17T04:19:41.049Z,99.90
2022-11-17T04:22:11.270Z,99.90
2022-11-17T04:24:40.720Z,99.90
2022-11-17T04:27:27.523Z,99.90
2022-11-17T04:29:57.714Z,99.90
2022-11-17T04:32:29.487Z,99.90
2022-11-17T04:34:58.741Z,99.90
2022-11-17T04:37:28.934Z,99.90
2022-11-17T04:39:58.168Z,99.90
2022-11-17T04:42:27.156Z,99.90
2022-11-17T04:44:56.722Z,99.90
2022-11-17T04:47:26.413Z,99.90
2022-11-17T04:49:57.244Z,99.90
2022-11-17T04:52:29.961Z,99.90
2022-11-17T04:54:59.597Z,99.90
2022-11-17T04:57:29.753Z,99.90
2022-11-17T04:59:59.180Z,99.90
2022-11-17T05:02:28.856Z,99.90
2022-11-17T05:04:59.932Z,99.90
2022-11-17T05:07:30.186Z,99.90
2022-11-17T05:09:59.878Z,99.90
2022-11-17T05:12:47.228Z,99.90
2022-11-17T05:15:36.788Z,99.90
2022-11-17T05:18:05.784Z,99.90
2022-11-17T05:20:37.292Z,99.90
2022-11-17T05:23:24.526Z,99.90
2022-11-17T05:25:55.592Z,99.90
2022-11-17T05:28:25.588Z,99.90
2022-11-17T05:30:54.850Z,99.90
2022-11-17T05:33:25.008Z,99.90
2022-11-17T05:35:55.798Z,99.90
2022-11-17T05:38:25.621Z,99.90
2022-11-17T05:40:54.961Z,99.90
2022-11-17T05:43:24.995Z,99.90
2022-11-17T05:45:54.256Z,99.90
2022-11-17T05:48:24.340Z,99.90
2022-11-17T05:50:56.056Z,99.90
2022-11-17T05:53:26.480Z,99.90
2022-11-17T05:56:11.872Z,99.90
2022-11-17T05:58:44.823Z,99.90
2022-11-17T06:01:15.377Z,99.90
2022-11-17T06:03:51.231Z,99.90
2022-11-17T06:06:23.399Z,99.90
2022-11-17T06:08:52.804Z,99.90
2022-11-17T06:11:22.964Z,99.90
2022-11-17T06:13:52.204Z,99.90
2022-11-17T06:16:26.993Z,99.90
2022-11-17T06:18:58.592Z,99.90
2022-11-17T06:21:49.494Z,99.90
2022-11-17T06:24:20.936Z,99.90
2022-11-17T06:26:51.387Z,99.90
2022-11-17T06:29:21.527Z,99.90
2022-11-17T06:31:52.009Z,99.90
2022-11-17T06:34:21.938Z,99.90
2022-11-17T06:36:53.929Z,99.90
2022-11-17T06:39:23.912Z,99.90
2022-11-17T06:41:53.591Z,99.90
2022-11-17T06:44:22.917Z,99.90
2022-11-17T06:46:53.029Z,99.90
2022-11-17T06:49:22.535Z,99.90
2022-11-17T06:51:54.049Z,99.90
2022-11-17T06:54:23.547Z,99.90
2022-11-17T06:56:53.762Z,99.90
2022-11-17T06:59:23.131Z,99.90
2022-11-17T07:01:53.090Z,99.90
2022-11-17T07:04:23.138Z,99.90
2022-11-17T07:06:54.821Z,99.90
2022-11-17T07:09:25.695Z,99.90
2022-11-17T07:11:55.804Z,99.90
2022-11-17T07:14:25.184Z,99.90
2022-11-17T07:16:55.242Z,99.90
2022-11-17T07:19:24.698Z,99.90
2022-11-17T07:21:56.214Z,99.90
2022-11-17T07:24:25.843Z,99.90
2022-11-17T07:26:56.033Z,99.90
2022-11-17T07:29:25.994Z,99.90
2022-11-17T07:31:56.285Z,99.90
2022-11-17T07:34:26.207Z,99.90
2022-11-17T07:36:57.175Z,99.90
2022-11-17T07:39:26.870Z,99.90
2022-11-17T07:41:56.366Z,99.90
2022-11-17T07:44:26.872Z,99.90
2022-11-17T07:46:56.931Z,99.90
2022-11-17T07:49:28.084Z,99.90
2022-11-17T07:51:59.723Z,99.90
2022-11-17T07:54:29.757Z,99.90
2022-11-17T07:56:59.353Z,99.90
2022-11-17T07:59:29.863Z,99.90
2022-11-17T08:01:59.458Z,99.90
2022-11-17T08:04:29.714Z,99.90
2022-11-17T08:07:01.058Z,99.90
2022-11-17T08:09:31.284Z,99.90
2022-11-17T08:12:01.437Z,99.90
2022-11-17T08:14:32.124Z,99.90
2022-11-17T08:17:01.719Z,99.90
2022-11-17T08:19:31.906Z,99.90
2022-11-17T08:22:03.214Z,99.90
2022-11-17T08:24:33.215Z,99.90
2022-11-17T08:27:02.584Z,99.90
2022-11-17T08:29:32.450Z,99.90
2022-11-17T08:32:02.041Z,99.90
2022-11-17T08:34:32.045Z,99.90
2022-11-17T08:37:03.086Z,99.90
2022-11-17T08:39:33.817Z,99.90
2022-11-17T08:42:03.164Z,99.90
2022-11-17T08:44:33.208Z,99.90
2022-11-17T08:47:02.600Z,99.90
2022-11-17T08:49:32.925Z,99.90
2022-11-17T08:52:04.099Z,99.90
2022-11-17T08:54:34.635Z,99.90
2022-11-17T08:57:04.094Z,99.90
2022-11-17T08:59:34.375Z,99.90
2022-11-17T09:02:03.808Z,99.90
2022-11-17T09:04:33.947Z,99.90
2022-11-17T09:07:06.656Z,99.90
2022-11-17T09:09:37.024Z,99.90
2022-11-17T09:12:06.650Z,99.90
2022-11-17T09:14:36.785Z,99.90
2022-11-17T09:17:07.024Z,99.90
2022-11-17T09:19:37.143Z,99.90
2022-11-17T09:22:08.862Z,99.90
2022-11-17T09:24:39.476Z,99.90
2022-11-17T09:27:09.423Z,99.90
2022-11-17T09:29:39.475Z,99.90
2022-11-17T09:32:09.094Z,99.90
2022-11-17T09:34:39.405Z,99.90
2022-11-17T09:37:10.656Z,99.90
2022-11-17T09:39:40.657Z,99.90
2022-11-17T09:42:16.112Z,99.90
2022-11-17T09:44:52.841Z,99.90
2022-11-17T09:47:31.946Z,99.90
2022-11-17T09:50:06.332Z,99.90
2022-11-17T09:52:51.446Z,99.90
2022-11-17T09:55:33.957Z,99.90
2022-11-17T09:58:13.120Z,99.90
2022-11-17T10:00:49.188Z,99.90
2022-11-17T10:03:21.736Z,99.90
2022-11-17T10:05:53.164Z,99.90
2022-11-17T10:08:35.282Z,99.90
2022-11-17T10:11:25.418Z,99.90
2022-11-17T10:13:54.825Z,99.90
2022-11-17T10:16:25.194Z,99.90
2022-11-17T10:18:55.064Z,99.90
2022-11-17T10:21:26.029Z,99.90
2022-11-17T10:24:01.574Z,99.90
2022-11-17T10:26:45.592Z,99.90
2022-11-17T10:29:16.043Z,99.90
2022-11-17T10:31:47.759Z,99.90
2022-11-17T10:34:40.217Z,99.90
2022-11-17T10:37:27.586Z,99.90
2022-11-17T10:40:24.782Z,99.90
2022-11-17T10:43:06.998Z,99.90
2022-11-17T10:45:37.035Z,99.90
2022-11-17T10:48:12.458Z,99.90
2022-11-17T10:50:54.033Z,99.90
2022-11-17T10:53:31.195Z,99.90
2022-11-17T10:56:06.043Z,99.90
2022-11-17T10:58:58.261Z,99.90
2022-11-17T11:01:33.135Z,99.90
2022-11-17T11:04:04.111Z,99.90
2022-11-17T11:06:35.477Z,99.90
2022-11-17T11:09:12.258Z,99.90
2022-11-17T11:12:07.109Z,99.90
2022-11-17T11:14:41.067Z,99.90
2022-11-17T11:17:13.552Z,99.90
2022-11-17T11:19:44.856Z,99.90
2022-11-17T11:22:25.531Z,99.90
2022-11-17T11:25:04.793Z,99.90
2022-11-17T11:27:59.784Z,99.90
2022-11-17T11:30:30.019Z,99.90
2022-11-17T11:33:11.526Z,99.90
2022-11-17T11:35:56.930Z,99.90
2022-11-17T11:38:43.213Z,99.90
2022-11-17T11:41:28.857Z,99.90
2022-11-17T11:44:17.861Z,99.90
2022-11-17T11:46:54.649Z,99.20
2022-11-17T11:49:34.496Z,99.00
2022-11-17T11:52:06.514Z,98.90
2022-11-17T11:54:44.979Z,99.70
2022-11-17T11:57:25.059Z,99.90
2022-11-17T12:00:04.081Z,99.90
2022-11-17T12:02:43.141Z,98.70
2022-11-17T12:05:26.158Z,98.30
2022-11-17T12:08:04.641Z,98.50
2022-11-17T12:10:44.560Z,99.10
2022-11-17T12:13:17.094Z,99.20
2022-11-17T12:15:48.825Z,98.70
2022-11-17T12:18:32.102Z,99.20
2022-11-17T12:21:05.575Z,98.60
2022-11-17T12:24:06.770Z,98.50
2022-11-17T12:26:37.013Z,97.90
2022-11-17T12:29:26.327Z,98.90
2022-11-17T12:31:59.096Z,96.90
2022-11-17T12:34:31.792Z,97.10
2022-11-17T12:37:18.939Z,97.60
2022-11-17T12:40:04.507Z,97.10
2022-11-17T12:42:35.976Z,97.00
2022-11-17T12:45:13.701Z,97.10
2022-11-17T12:48:04.775Z,97.60
2022-11-17T12:50:50.300Z,98.70
2022-11-17T12:53:50.659Z,97.70
2022-11-17T12:56:48.888Z,97.70
2022-11-17T12:59:39.980Z,97.50
2022-11-17T13:02:22.410Z,97.80
2022-11-17T13:04:59.258Z,97.10
2022-11-17T13:07:29.060Z,97.40
2022-11-17T13:10:02.903Z,97.40
2022-11-17T13:12:33.678Z,98.00
2022-11-17T13:15:05.298Z,98.10
2022-11-17T13:17:35.634Z,98.40
2022-11-17T13:20:20.803Z,99.00
2022-11-17T13:23:01.331Z,99.80
2022-11-17T13:25:31.785Z,99.20
2022-11-17T13:28:04.778Z,99.40
2022-11-17T13:30:35.783Z,99.90
2022-11-17T13:33:12.384Z,99.90
2022-11-17T13:35:43.914Z,99.90
2022-11-17T13:38:21.307Z,99.90
2022-11-17T13:40:52.845Z,99.90
2022-11-17T13:43:24.558Z,99.90
2022-11-17T13:45:56.874Z,99.90
2022-11-17T13:48:35.001Z,99.90
2022-11-17T13:51:28.094Z,99.90
2022-11-17T13:54:00.790Z,99.90
2022-11-17T13:56:35.879Z,99.90
2022-11-17T13:59:08.482Z,99.90
2022-11-17T14:01:38.773Z,99.90
2022-11-17T14:04:20.076Z,99.90
2022-11-17T14:07:00.482Z,99.90
2022-11-17T14:09:31.060Z,99.90
2022-11-17T14:12:01.962Z,99.90
2022-11-17T14:14:36.349Z,99.90
2022-11-17T14:17:15.350Z,99.90
2022-11-17T14:19:44.984Z,99.90
2022-11-17T14:22:31.739Z,99.90
2022-11-17T14:25:01.906Z,99.90
2022-11-17T14:27:40.776Z,99.90
2022-11-17T14:30:16.166Z,99.90
2022-11-17T14:32:46.347Z,99.90
2022-11-17T14:37:49.299Z,99.90
2022-11-17T14:40:19.385Z,99.90
2022-11-17T14:42:49.926Z,99.90
2022-11-17T14:45:19.613Z,99.90
2022-11-17T14:47:51.017Z,99.90
2022-11-17T14:50:20.214Z,99.90
2022-11-17T14:52:51.871Z,99.90
2022-11-17T14:55:22.437Z,99.90
2022-11-17T14:57:52.701Z,99.90
2022-11-17T15:00:22.775Z,99.90
2022-11-17T15:02:53.125Z,99.90
2022-11-17T15:05:22.825Z,99.90
2022-11-17T15:07:55.215Z,99.90
2022-11-17T15:10:24.690Z,99.90
2022-11-17T15:12:54.992Z,99.90
2022-11-17T15:15:24.526Z,99.90
2022-11-17T15:17:54.810Z,99.90
2022-11-17T15:20:24.137Z,99.90
2022-11-17T15:23:01.868Z,99.90
2022-11-17T15:25:32.533Z,99.90
2022-11-17T15:28:02.589Z,99.90
2022-11-17T15:30:32.293Z,99.90
2022-11-17T15:33:02.117Z,99.90
2022-11-17T15:35:32.705Z,99.90
2022-11-17T15:38:04.743Z,99.90
2022-11-17T15:40:33.961Z,99.90
2022-11-17T15:43:06.012Z,99.90
2022-11-17T15:45:35.624Z,99.90
2022-11-17T15:48:05.875Z,99.90
2022-11-17T15:50:35.462Z,99.90
2022-11-17T15:53:07.410Z,99.90
2022-11-17T15:55:36.878Z,99.90
2022-11-17T15:58:07.261Z,99.90
2022-11-17T16:00:36.875Z,99.90
2022-11-17T16:03:08.598Z,99.90
2022-11-17T16:05:37.577Z,99.90
2022-11-17T16:08:10.469Z,99.90
2022-11-17T16:10:40.404Z,99.90
2022-11-17T16:13:10.710Z,99.90
2022-11-17T16:15:40.336Z,99.90
2022-11-17T16:18:10.015Z,99.90
2022-11-17T16:20:39.569Z,99.90
2022-11-17T16:23:11.023Z,99.90
2022-11-17T16:25:41.864Z,99.90
2022-11-17T16:28:11.874Z,99.90
2022-11-17T16:30:42.081Z,99.90
2022-11-17T16:33:13.671Z,99.90
2022-11-17T16:35:43.487Z,99.90
2022-11-17T16:38:18.195Z,99.90
2022-11-17T16:40:48.049Z,99.90
2022-11-17T16:43:17.851Z,99.90
2022-11-17T16:45:47.790Z,99.90
2022-11-17T16:48:17.845Z,99.90
2022-11-17T16:50:47.870Z,99.90
2022-11-17T16:53:19.747Z,99.90
2022-11-17T16:55:49.024Z,99.90
2022-11-17T16:58:18.954Z,99.90
2022-11-17T17:00:48.554Z,99.90
2022-11-17T17:03:19.349Z,99.90
2022-11-17T17:05:48.916Z,99.90
2022-11-17T17:08:20.505Z,99.90
2022-11-17T17:10:49.625Z,99.90
2022-11-17T17:13:20.636Z,99.90
2022-11-17T17:15:50.538Z,99.90
2022-11-17T17:18:20.879Z,99.90
2022-11-17T17:20:53.006Z,99.90
2022-11-17T17:23:25.035Z,99.90
2022-11-17T17:26:02.756Z,99.90
2022-11-17T17:28:34.369Z,99.90
2022-11-17T17:31:05.097Z,99.90
2022-11-17T17:33:36.804Z,99.90
2022-11-17T17:36:07.095Z,99.90
2022-11-17T17:38:39.434Z,99.90
2022-11-17T17:41:10.112Z,99.90
2022-11-17T17:43:40.512Z,99.90
2022-11-17T17:46:15.435Z,99.90
2022-11-17T17:48:47.522Z,99.90
2022-11-17T17:51:17.938Z,99.90
2022-11-17T17:53:50.498Z,99.90
2022-11-17T17:56:22.237Z,99.90
2022-11-17T17:58:52.644Z,99.90
2022-11-17T18:01:24.507Z,99.90
2022-11-17T18:04:01.192Z,99.90
2022-11-17T18:06:31.337Z,99.90
2022-11-17T18:09:02.613Z,99.90
2022-11-17T18:11:32.575Z,99.90
2022-11-17T18:14:02.831Z,99.90
2022-11-17T18:16:34.218Z,99.90
2022-11-17T18:19:06.005Z,99.90
2022-11-17T18:21:36.094Z,99.90
2022-11-17T18:24:09.091Z,99.90
2022-11-17T18:26:39.005Z,99.90
2022-11-17T18:29:10.575Z,99.90
2022-11-17T18:31:40.243Z,99.90
2022-11-17T18:34:15.714Z,99.90
2022-11-17T18:36:45.103Z,99.90
2022-11-17T18:39:18.575Z,99.90
2022-11-17T18:41:48.864Z,99.90
2022-11-17T18:44:20.093Z,99.90
2022-11-17T18:46:49.699Z,99.90
2022-11-17T18:49:19.879Z,99.90
2022-11-17T18:51:49.747Z,99.90
2022-11-17T18:54:21.422Z,99.90
2022-11-17T18:56:51.607Z,99.90
2022-11-17T18:59:21.431Z,99.90
2022-11-17T19:01:51.316Z,99.90
2022-11-17T19:04:21.723Z,99.90
2022-11-17T19:06:51.998Z,99.90
2022-11-17T19:09:24.010Z,99.90
2022-11-17T19:11:54.042Z,99.90
2022-11-17T19:14:24.268Z,99.90
2022-11-17T19:16:55.723Z,99.90
2022-11-17T19:19:26.349Z,99.90
2022-11-17T19:21:56.201Z,99.90
2022-11-17T19:24:27.942Z,99.90
2022-11-17T19:26:57.813Z,99.90
2022-11-17T19:29:28.749Z,99.90
2022-11-17T19:31:58.366Z,99.90
2022-11-17T19:34:28.302Z,99.90
2022-11-17T19:36:58.267Z,99.90
2022-11-17T19:39:29.968Z,99.90
2022-11-17T19:41:59.513Z,99.90
2022-11-17T19:44:30.490Z,99.90
2022-11-17T19:47:00.286Z,99.90
2022-11-17T19:49:30.872Z,99.90
2022-11-17T19:52:00.719Z,99.90
2022-11-17T19:54:32.343Z,99.90
2022-11-17T19:57:01.705Z,99.90
2022-11-17T19:59:32.076Z,99.90
2022-11-17T20:02:01.417Z,99.90
2022-11-17T20:04:32.145Z,99.90
2022-11-17T20:07:01.714Z,99.90
2022-11-17T20:09:33.311Z,99.90
2022-11-17T20:12:02.807Z,99.90
2022-11-17T20:14:33.667Z,99.90
2022-11-17T20:17:03.059Z,99.90
2022-11-17T20:19:34.199Z,99.90
2022-11-17T20:22:03.854Z,99.90
2022-11-17T20:24:35.722Z,99.90
2022-11-17T20:27:05.124Z,99.90
2022-11-17T20:29:35.373Z,99.90
2022-11-17T20:32:04.727Z,99.90
2022-11-17T20:34:34.931Z,99.90
2022-11-17T20:37:04.482Z,99.90
2022-11-17T20:39:36.486Z,99.90
2022-11-17T20:42:06.047Z,99.90
2022-11-17T20:44:36.074Z,99.90
2022-11-17T20:47:05.903Z,99.90
2022-11-17T20:49:36.520Z,99.90
2022-11-17T20:52:12.004Z,99.90
2022-11-17T20:54:45.189Z,99.90
2022-11-17T20:57:15.270Z,99.90
2022-11-17T20:59:45.495Z,99.90
2022-11-17T21:02:14.837Z,99.90
2022-11-17T21:04:46.038Z,99.90
2022-11-17T21:07:15.428Z,99.90
2022-11-17T21:09:47.314Z,99.90
2022-11-17T21:12:16.854Z,99.90
2022-11-17T21:14:46.578Z,99.90
2022-11-17T21:17:29.611Z,99.90
2022-11-17T21:19:59.703Z,99.90
2022-11-17T21:22:29.065Z,99.90
2022-11-17T21:25:00.650Z,99.90
2022-11-17T21:27:30.166Z,99.90
2022-11-17T21:30:00.579Z,99.90
2022-11-17T21:32:30.131Z,99.90
2022-11-17T21:35:01.537Z,99.90
2022-11-17T21:37:31.297Z,99.90
2022-11-17T21:40:03.258Z,99.90
2022-11-17T21:42:34.724Z,99.90
2022-11-17T21:45:04.886Z,99.90
2022-11-17T21:47:34.663Z,99.90
2022-11-17T21:50:05.114Z,99.90
2022-11-17T21:52:35.250Z,99.90
2022-11-17T21:55:07.598Z,99.90
2022-11-17T21:57:37.459Z,99.90
2022-11-17T22:00:08.489Z,99.90
2022-11-17T22:02:37.850Z,99.90
2022-11-17T22:05:08.387Z,99.90
2022-11-17T22:07:37.999Z,99.90
2022-11-17T22:10:11.957Z,99.90
2022-11-17T22:12:41.466Z,99.90
2022-11-17T22:15:12.190Z,99.90
2022-11-17T22:17:42.058Z,99.90
2022-11-17T22:20:12.715Z,99.90
2022-11-17T22:22:42.961Z,99.90
2022-11-17T22:25:38.016Z,99.90
2022-11-17T22:28:04.426Z,99.90
2022-11-17T22:30:34.456Z,99.90
2022-11-17T22:33:03.962Z,99.90
2022-11-17T22:35:34.627Z,99.90
2022-11-17T22:38:04.481Z,99.90
2022-11-17T22:40:35.769Z,99.90
2022-11-17T22:43:09.008Z,99.90
2022-11-17T22:45:41.601Z,99.90
2022-11-17T22:48:11.505Z,99.90
2022-11-17T22:50:41.864Z,99.90
2022-11-17T22:53:11.475Z,99.90
2022-11-17T22:55:43.069Z,99.90
2022-11-17T22:58:16.113Z,99.90
2022-11-17T23:00:45.924Z,99.90
2022-11-17T23:03:15.909Z,99.90
2022-11-17T23:05:45.632Z,99.90
2022-11-17T23:08:15.046Z,99.90
2022-11-17T23:10:47.091Z,99.90
2022-11-17T23:13:16.437Z,99.90
2022-11-17T23:15:46.531Z,99.90
2022-11-17T23:18:15.945Z,99.90
2022-11-17T23:20:46.837Z,99.90
2022-11-17T23:23:16.143Z,99.90
2022-11-17T23:25:48.750Z,99.90
2022-11-17T23:28:18.215Z,99.90
2022-11-17T23:30:47.957Z,99.90
2022-11-17T23:33:17.263Z,99.90
2022-11-17T23:35:47.161Z,99.90
2022-11-17T23:38:17.147Z,99.90
2022-11-17T23:40:48.861Z,99.90
2022-11-17T23:43:18.274Z,99.90
2022-11-17T23:45:48.542Z,99.90
2022-11-17T23:48:18.095Z,99.90
2022-11-17T23:50:48.492Z,99.90
2022-11-17T23:53:18.473Z,99.90
2022-11-17T23:55:57.797Z,99.90
2022-11-17T23:58:27.631Z,99.90
